Time;durP1;ratioP1;P1;durP2;ratioP2;P2;SDS_P1;SDS_P2;PMS_P1;PMS_P2;Temp;Humidity;BMP_temperature;BMP_pressure;BME280_temperature;BME280_humidity;BME280_pressure;Samples;Min_cycle;Max_cycle;Signal;HPM_P1;HPM_P2
2023/12/02 00:00:46;;;;;;;7.27;4.57;;;1.10;99.90;;;;;;5040600;28;21026;-72
2023/12/02 00:03:11;;;;;;;12.30;4.57;;;1.00;99.90;;;;;;5056767;28;20208;-71
2023/12/02 00:05:37;;;;;;;5.87;3.70;;;1.00;99.90;;;;;;5027903;28;20307;-71
2023/12/02 00:08:03;;;;;;;4.47;3.40;;;1.00;99.90;;;;;;5048845;28;20224;-72
2023/12/02 00:10:29;;;;;;;3.63;3.10;;;1.00;99.90;;;;;;5055353;28;20778;-72
2023/12/02 00:12:54;;;;;;;6.53;3.07;;;0.90;99.90;;;;;;5059945;28;20553;-73
2023/12/02 00:15:20;;;;;;;9.43;3.60;;;0.90;99.90;;;;;;5070828;28;20563;-72
2023/12/02 00:17:45;;;;;;;10.50;3.40;;;0.90;99.90;;;;;;5042113;28;20701;-73
2023/12/02 00:20:11;;;;;;;6.33;3.40;;;0.90;99.90;;;;;;5042955;28;20304;-71
2023/12/02 00:22:37;;;;;;;9.20;3.20;;;0.90;99.90;;;;;;5033815;28;20220;-72
2023/12/02 00:25:03;;;;;;;6.63;4.27;;;0.80;99.90;;;;;;5044018;28;20681;-71
2023/12/02 00:27:28;;;;;;;6.10;3.33;;;0.80;99.90;;;;;;5047831;28;20226;-72
2023/12/02 00:29:54;;;;;;;6.67;3.40;;;0.80;99.90;;;;;;5046324;28;20462;-71
2023/12/02 00:32:20;;;;;;;7.70;4.13;;;0.80;99.90;;;;;;5045136;28;20216;-71
2023/12/02 00:34:45;;;;;;;10.97;4.57;;;0.90;99.90;;;;;;5044139;28;20599;-71
2023/12/02 00:37:11;;;;;;;8.07;4.20;;;0.90;99.90;;;;;;5048390;28;20223;-71
2023/12/02 00:39:37;;;;;;;6.80;4.17;;;0.80;99.90;;;;;;5025965;28;20215;-72
2023/12/02 00:42:03;;;;;;;8.10;4.37;;;0.80;99.90;;;;;;5040845;28;20306;-72
2023/12/02 00:44:28;;;;;;;4.83;3.57;;;0.80;99.90;;;;;;5069922;28;20226;-71
2023/12/02 00:46:54;;;;;;;9.37;4.37;;;0.80;99.90;;;;;;5044182;28;20306;-71
2023/12/02 00:49:20;;;;;;;4.90;3.13;;;0.80;99.90;;;;;;5038818;28;20223;-71
2023/12/02 00:51:45;;;;;;;7.93;3.90;;;0.80;99.90;;;;;;5038165;28;20247;-71
2023/12/02 00:54:11;;;;;;;10.67;4.50;;;0.80;99.90;;;;;;5036661;28;20238;-71
2023/12/02 00:56:37;;;;;;;9.17;4.63;;;0.70;99.90;;;;;;5083115;28;20227;-71
2023/12/02 00:59:02;;;;;;;5.67;3.37;;;0.70;99.90;;;;;;5064119;28;20220;-72
2023/12/02 01:01:28;;;;;;;10.23;4.60;;;0.70;99.90;;;;;;5038742;28;20234;-72
2023/12/02 01:03:54;;;;;;;11.63;4.50;;;0.70;99.90;;;;;;5062492;28;20250;-71
2023/12/02 01:06:19;;;;;;;6.47;3.23;;;0.70;99.90;;;;;;5053669;28;20223;-72
2023/12/02 01:08:45;;;;;;;8.63;3.83;;;0.70;99.90;;;;;;5033569;28;20223;-72
2023/12/02 01:11:11;;;;;;;8.53;3.30;;;0.70;99.90;;;;;;5022964;28;20222;-71
2023/12/02 01:13:36;;;;;;;8.90;3.83;;;0.70;99.90;;;;;;5030835;28;20277;-71
2023/12/02 01:16:02;;;;;;;7.40;3.87;;;0.70;99.90;;;;;;5037662;28;20232;-72
2023/12/02 01:18:28;;;;;;;7.57;3.60;;;0.60;99.90;;;;;;5070048;28;20311;-70
2023/12/02 01:20:53;;;;;;;11.70;4.80;;;0.60;99.90;;;;;;5052818;28;20213;-71
2023/12/02 01:23:19;;;;;;;5.80;3.70;;;0.70;99.90;;;;;;5031318;28;20239;-71
2023/12/02 01:25:44;;;;;;;5.00;3.13;;;0.70;99.90;;;;;;5045398;28;20697;-71
2023/12/02 01:28:10;;;;;;;7.30;3.33;;;0.70;99.90;;;;;;5050182;28;20216;-71
2023/12/02 01:30:36;;;;;;;8.67;3.93;;;0.60;99.90;;;;;;5051807;28;20224;-71
2023/12/02 01:33:01;;;;;;;5.83;3.30;;;0.70;99.90;;;;;;5053035;28;20226;-71
2023/12/02 01:35:27;;;;;;;4.60;3.00;;;0.70;99.90;;;;;;5052758;28;20214;-71
2023/12/02 01:37:53;;;;;;;6.70;3.80;;;0.60;99.90;;;;;;5069674;28;20314;-71
2023/12/02 01:40:18;;;;;;;4.77;3.63;;;0.60;99.90;;;;;;5046175;28;20227;-72
2023/12/02 01:42:44;;;;;;;7.50;3.60;;;0.60;99.90;;;;;;5057767;28;20227;-72
2023/12/02 01:45:10;;;;;;;5.83;3.57;;;0.50;99.90;;;;;;5023642;28;20248;-71
2023/12/02 01:47:35;;;;;;;5.20;3.30;;;0.50;99.90;;;;;;5029214;28;20220;-72
2023/12/02 01:50:03;;;;;;;6.50;3.53;;;0.50;99.90;;;;;;5023747;28;20215;-70
2023/12/02 01:52:32;;;;;;;6.13;3.00;;;0.50;99.90;;;;;;5028029;28;20264;-70
2023/12/02 01:54:58;;;;;;;5.63;3.20;;;0.40;99.90;;;;;;5022182;28;20521;-71
2023/12/02 01:57:23;;;;;;;6.30;4.20;;;0.50;99.90;;;;;;5018319;28;20503;-73
2023/12/02 01:59:54;;;;;;;3.10;2.30;;;0.40;99.90;;;;;;5037868;28;20670;-71
2023/12/02 02:02:21;;;;;;;7.70;3.90;;;0.50;99.90;;;;;;5048355;28;20224;-70
2023/12/02 02:04:48;;;;;;;4.00;2.70;;;0.50;99.90;;;;;;5045129;28;20542;-70
2023/12/02 02:07:14;;;;;;;3.40;3.10;;;0.50;99.90;;;;;;5068360;28;20442;-71
2023/12/02 02:09:46;;;;;;;5.23;2.87;;;0.50;99.90;;;;;;5070829;28;20450;-72
2023/12/02 02:12:13;;;;;;;6.90;3.20;;;0.40;99.90;;;;;;5023021;28;20797;-71
2023/12/02 02:14:38;;;;;;;3.37;2.30;;;0.50;99.90;;;;;;5035964;28;20829;-71
2023/12/02 02:17:04;;;;;;;6.90;3.47;;;0.50;99.90;;;;;;5077659;28;20468;-71
2023/12/02 02:19:31;;;;;;;5.67;3.30;;;0.50;99.90;;;;;;5045890;28;20221;-69
2023/12/02 02:21:57;;;;;;;4.87;3.23;;;0.50;99.90;;;;;;5021537;28;20220;-71
2023/12/02 02:24:22;;;;;;;5.97;3.07;;;0.40;99.90;;;;;;5019661;28;20444;-70
2023/12/02 02:26:48;;;;;;;3.73;2.97;;;0.40;99.90;;;;;;5051655;28;20592;-70
2023/12/02 02:29:14;;;;;;;6.37;3.50;;;0.40;99.90;;;;;;5022021;28;20217;-71
2023/12/02 02:31:39;;;;;;;6.30;3.30;;;0.50;99.90;;;;;;5029692;28;20228;-71
2023/12/02 02:34:05;;;;;;;6.37;3.50;;;0.40;99.90;;;;;;5039511;28;20230;-72
2023/12/02 02:36:30;;;;;;;3.90;2.30;;;0.40;99.90;;;;;;5063269;28;20224;-71
2023/12/02 02:38:56;;;;;;;3.50;2.53;;;0.40;99.90;;;;;;5037394;28;20212;-71
2023/12/02 02:41:22;;;;;;;9.07;2.90;;;0.40;99.90;;;;;;5030191;28;20220;-70
2023/12/02 02:43:47;;;;;;;6.50;3.30;;;0.30;99.90;;;;;;5057503;28;20246;-70
2023/12/02 02:46:14;;;;;;;4.30;2.67;;;0.30;99.90;;;;;;5050079;28;20269;-71
2023/12/02 02:48:40;;;;;;;6.20;3.30;;;0.30;99.90;;;;;;5054360;28;20220;-70
2023/12/02 02:51:05;;;;;;;4.80;3.00;;;0.40;99.90;;;;;;5074645;28;20452;-71
2023/12/02 02:53:31;;;;;;;6.10;2.93;;;0.30;99.90;;;;;;5074875;28;20226;-71
2023/12/02 02:55:57;;;;;;;7.33;3.10;;;0.20;99.90;;;;;;5053269;28;20446;-71
2023/12/02 02:58:22;;;;;;;4.00;2.00;;;0.30;99.90;;;;;;5052068;28;20219;-71
2023/12/02 03:00:48;;;;;;;4.93;2.70;;;0.20;99.90;;;;;;5068675;28;20269;-71
2023/12/02 03:03:14;;;;;;;6.20;2.90;;;0.30;99.90;;;;;;5053277;28;20216;-70
2023/12/02 03:05:39;;;;;;;6.00;2.80;;;0.40;99.90;;;;;;5053992;28;20216;-71
2023/12/02 03:08:05;;;;;;;5.03;3.67;;;0.20;99.90;;;;;;5027836;28;20212;-71
2023/12/02 03:10:31;;;;;;;6.80;3.00;;;0.20;99.90;;;;;;5053958;28;20218;-71
2023/12/02 03:12:56;;;;;;;4.80;2.87;;;0.20;99.90;;;;;;5046178;28;20263;-71
2023/12/02 03:15:22;;;;;;;6.93;3.03;;;0.10;99.90;;;;;;5045043;28;20443;-71
2023/12/02 03:17:48;;;;;;;4.70;2.60;;;0.10;99.90;;;;;;5048346;28;20867;-71
2023/12/02 03:20:13;;;;;;;2.47;2.23;;;0.20;99.90;;;;;;5053901;28;20742;-71
2023/12/02 03:22:39;;;;;;;3.00;2.50;;;0.10;99.90;;;;;;5035093;28;20238;-70
2023/12/02 03:25:06;;;;;;;3.57;2.20;;;0.10;99.90;;;;;;5053041;28;20219;-71
2023/12/02 03:27:32;;;;;;;5.37;3.20;;;0.20;99.90;;;;;;5046829;28;20226;-71
2023/12/02 03:29:57;;;;;;;2.83;2.17;;;0.10;99.90;;;;;;5052313;28;20501;-71
2023/12/02 03:32:23;;;;;;;4.37;2.33;;;0.10;99.90;;;;;;5082854;28;20228;-71
2023/12/02 03:34:49;;;;;;;3.10;2.43;;;0.20;99.90;;;;;;5038011;28;20222;-71
2023/12/02 03:37:14;;;;;;;4.50;3.03;;;0.20;99.90;;;;;;5029597;28;20288;-71
2023/12/02 03:39:40;;;;;;;4.37;2.57;;;0.20;99.90;;;;;;5050483;28;20310;-72
2023/12/02 03:42:05;;;;;;;2.90;2.13;;;0.20;99.90;;;;;;5029653;28;20234;-71
2023/12/02 03:44:31;;;;;;;7.43;2.77;;;0.20;99.90;;;;;;5024941;28;20700;-71
2023/12/02 03:46:57;;;;;;;4.57;2.80;;;0.30;99.90;;;;;;5044075;28;20218;-72
2023/12/02 03:49:22;;;;;;;4.03;2.50;;;0.30;99.90;;;;;;5050493;28;20216;-71
2023/12/02 03:51:48;;;;;;;4.00;2.70;;;0.30;99.90;;;;;;5038624;28;20227;-71
2023/12/02 03:54:14;;;;;;;3.57;2.40;;;0.20;99.90;;;;;;5075199;28;20230;-72
2023/12/02 03:56:39;;;;;;;4.00;2.30;;;0.30;99.90;;;;;;5035517;28;20467;-71
2023/12/02 03:59:05;;;;;;;3.67;2.07;;;0.20;99.90;;;;;;5047010;28;20220;-72
2023/12/02 04:01:31;;;;;;;3.60;2.57;;;0.30;99.90;;;;;;5061795;28;20226;-71
2023/12/02 04:03:57;;;;;;;3.23;2.53;;;0.30;99.90;;;;;;5058027;28;20450;-71
2023/12/02 04:06:23;;;;;;;2.23;1.90;;;0.30;99.90;;;;;;5049408;28;20216;-71
2023/12/02 04:08:49;;;;;;;3.60;2.30;;;0.40;99.90;;;;;;5067853;28;20445;-72
2023/12/02 04:11:14;;;;;;;4.63;2.73;;;0.40;99.90;;;;;;5051952;28;20309;-72
2023/12/02 04:13:40;;;;;;;3.43;2.10;;;0.30;99.90;;;;;;5051046;28;20303;-71
2023/12/02 04:16:06;;;;;;;3.60;2.50;;;0.20;99.90;;;;;;5072750;28;20211;-71
2023/12/02 04:18:33;;;;;;;2.67;2.10;;;0.30;99.90;;;;;;5045319;28;20239;-71
2023/12/02 04:20:58;;;;;;;3.07;2.30;;;0.40;99.90;;;;;;5070231;28;20211;-71
2023/12/02 04:23:24;;;;;;;5.67;2.33;;;0.40;99.90;;;;;;5073405;28;20464;-70
2023/12/02 04:25:50;;;;;;;5.47;2.80;;;0.50;99.90;;;;;;5068402;28;20242;-72
2023/12/02 04:28:16;;;;;;;2.47;2.00;;;0.40;99.90;;;;;;5040725;28;20324;-72
2023/12/02 04:30:42;;;;;;;5.40;2.23;;;0.40;99.90;;;;;;5044664;28;20461;-71
2023/12/02 04:33:08;;;;;;;4.80;2.90;;;0.40;99.90;;;;;;5044492;28;20461;-71
2023/12/02 04:35:35;;;;;;;5.23;2.73;;;0.40;99.90;;;;;;5069189;28;20232;-72
2023/12/02 04:38:04;;;;;;;4.37;2.77;;;0.40;99.90;;;;;;5038298;28;20504;-71
2023/12/02 04:40:33;;;;;;;2.30;1.80;;;0.40;99.90;;;;;;5045008;28;20449;-70
2023/12/02 04:42:58;;;;;;;4.53;2.53;;;0.40;99.90;;;;;;5044221;28;20924;-72
2023/12/02 04:45:24;;;;;;;3.83;3.03;;;0.40;99.90;;;;;;5075065;28;20495;-70
2023/12/02 04:47:50;;;;;;;2.67;2.47;;;0.30;99.90;;;;;;5073945;28;20222;-71
2023/12/02 04:50:16;;;;;;;3.70;2.60;;;0.30;99.90;;;;;;5048003;28;20465;-71
2023/12/02 04:52:42;;;;;;;3.13;2.03;;;0.30;99.90;;;;;;5037574;28;20237;-72
2023/12/02 04:55:08;;;;;;;7.30;2.90;;;0.40;99.90;;;;;;5049899;28;20234;-71
2023/12/02 04:57:33;;;;;;;3.53;2.80;;;0.30;99.90;;;;;;5055217;28;20231;-72
2023/12/02 04:59:59;;;;;;;8.83;3.50;;;0.20;99.90;;;;;;5033051;28;20438;-71
2023/12/02 05:02:25;;;;;;;2.57;1.93;;;0.20;99.90;;;;;;5058859;28;20224;-71
2023/12/02 05:04:51;;;;;;;4.70;2.67;;;0.20;99.90;;;;;;5048431;28;20277;-71
2023/12/02 05:07:16;;;;;;;5.47;2.83;;;0.10;99.90;;;;;;5044899;28;20229;-71
2023/12/02 05:09:42;;;;;;;4.53;2.70;;;0.10;99.90;;;;;;5051263;28;20450;-71
2023/12/02 05:12:08;;;;;;;4.83;3.00;;;0.10;99.90;;;;;;5050656;28;20234;-70
2023/12/02 05:14:34;;;;;;;4.80;2.90;;;0.00;99.90;;;;;;5053782;28;20224;-71
2023/12/02 05:17:00;;;;;;;3.13;2.80;;;0.00;99.90;;;;;;5058114;28;20538;-71
2023/12/02 05:19:26;;;;;;;3.03;2.70;;;0.10;99.90;;;;;;5058111;28;20438;-71
2023/12/02 05:21:51;;;;;;;4.90;3.00;;;0.10;99.90;;;;;;5053644;28;20273;-71
2023/12/02 05:24:20;;;;;;;3.40;2.70;;;0.00;99.90;;;;;;5035919;28;20274;-71
2023/12/02 05:26:46;;;;;;;5.97;2.63;;;0.00;99.90;;;;;;5041591;28;20230;-71
2023/12/02 05:29:11;;;;;;;4.67;2.50;;;0.00;99.90;;;;;;5054030;28;20457;-72
2023/12/02 05:31:38;;;;;;;4.50;2.77;;;0.00;99.90;;;;;;5049973;28;20455;-70
2023/12/02 05:34:04;;;;;;;4.07;2.53;;;0.10;99.90;;;;;;5053948;28;20222;-71
2023/12/02 05:36:30;;;;;;;3.03;2.20;;;0.10;99.90;;;;;;5080064;28;20464;-70
2023/12/02 05:38:56;;;;;;;6.90;3.00;;;0.10;99.90;;;;;;5073950;28;20223;-71
2023/12/02 05:41:22;;;;;;;2.97;2.13;;;0.10;99.90;;;;;;5045344;28;20215;-71
2023/12/02 05:43:48;;;;;;;4.53;3.07;;;0.10;99.90;;;;;;5053577;28;20517;-71
2023/12/02 05:46:15;;;;;;;2.80;2.20;;;0.10;99.90;;;;;;5071016;28;20452;-71
2023/12/02 05:48:42;;;;;;;3.57;2.50;;;0.10;99.90;;;;;;5032170;28;20444;-71
2023/12/02 05:51:08;;;;;;;4.80;2.53;;;0.10;99.90;;;;;;5040080;28;20476;-71
2023/12/02 05:53:34;;;;;;;3.17;2.70;;;0.10;99.90;;;;;;5033111;28;20458;-71
2023/12/02 05:55:59;;;;;;;5.50;2.30;;;0.00;99.90;;;;;;5062494;28;20215;-70
2023/12/02 05:58:25;;;;;;;3.87;2.30;;;0.00;99.90;;;;;;5037709;28;20223;-71
2023/12/02 06:00:51;;;;;;;3.03;2.23;;;0.10;99.90;;;;;;5063682;28;20549;-71
2023/12/02 06:03:16;;;;;;;4.17;2.77;;;0.10;99.90;;;;;;5064291;28;20238;-71
2023/12/02 06:05:42;;;;;;;2.30;1.80;;;0.10;99.90;;;;;;5032862;28;20219;-71
2023/12/02 06:08:07;;;;;;;2.40;1.57;;;0.10;99.90;;;;;;5030788;28;20221;-71
2023/12/02 06:10:33;;;;;;;2.37;2.17;;;0.00;99.90;;;;;;5037660;28;20225;-70
2023/12/02 06:12:59;;;;;;;4.63;2.67;;;0.10;99.90;;;;;;5067660;28;20212;-71
2023/12/02 06:15:24;;;;;;;4.67;2.80;;;0.20;99.90;;;;;;5051282;28;20265;-70
2023/12/02 06:17:50;;;;;;;2.30;2.10;;;0.10;99.90;;;;;;5062332;28;20587;-70
2023/12/02 06:20:16;;;;;;;2.63;2.43;;;0.20;99.90;;;;;;5051054;28;20218;-71
2023/12/02 06:22:42;;;;;;;5.00;3.70;;;0.10;99.90;;;;;;5071374;28;20457;-70
2023/12/02 06:25:07;;;;;;;2.73;1.97;;;0.00;99.90;;;;;;5037211;28;20216;-70
2023/12/02 06:27:33;;;;;;;1.97;1.70;;;0.00;99.90;;;;;;5044839;28;20749;-70
2023/12/02 06:29:59;;;;;;;2.60;2.00;;;0.00;99.90;;;;;;5055330;28;20223;-70
2023/12/02 06:32:25;;;;;;;3.57;2.27;;;0.00;99.90;;;;;;5048300;28;20306;-71
2023/12/02 06:34:50;;;;;;;5.17;2.73;;;-0.10;99.90;;;;;;5050919;28;20212;-70
2023/12/02 06:37:16;;;;;;;2.00;1.73;;;-0.10;99.90;;;;;;5029093;28;20236;-71
2023/12/02 06:39:41;;;;;;;2.73;2.27;;;0.00;99.90;;;;;;5038814;28;20221;-70
2023/12/02 06:42:07;;;;;;;3.73;2.20;;;0.00;99.90;;;;;;5012975;28;20277;-70
2023/12/02 06:44:33;;;;;;;3.87;1.83;;;0.00;99.90;;;;;;5051272;28;20220;-69
2023/12/02 06:46:58;;;;;;;5.97;3.00;;;-0.10;99.90;;;;;;5056955;28;20249;-70
2023/12/02 06:49:24;;;;;;;4.23;2.40;;;-0.10;99.90;;;;;;5041229;28;20215;-69
2023/12/02 06:51:49;;;;;;;4.00;2.40;;;-0.10;99.90;;;;;;5052038;28;20284;-69
2023/12/02 06:54:15;;;;;;;4.80;2.57;;;-0.10;99.90;;;;;;5034455;28;20247;-70
2023/12/02 06:56:41;;;;;;;6.90;3.50;;;-0.10;99.90;;;;;;5067043;28;20310;-71
2023/12/02 06:59:07;;;;;;;6.43;2.90;;;-0.10;99.90;;;;;;5042833;28;20240;-70
2023/12/02 07:01:33;;;;;;;2.83;1.87;;;-0.10;99.90;;;;;;5030480;28;20227;-69
2023/12/02 07:04:00;;;;;;;4.00;2.77;;;-0.10;99.90;;;;;;5055536;28;20464;-69
2023/12/02 07:06:27;;;;;;;2.80;2.00;;;0.00;99.90;;;;;;5052557;28;20220;-69
2023/12/02 07:08:54;;;;;;;5.43;2.73;;;0.00;99.90;;;;;;5056762;28;20534;-69
2023/12/02 07:11:21;;;;;;;4.20;2.23;;;0.10;99.90;;;;;;5050369;28;20485;-70
2023/12/02 07:13:47;;;;;;;5.40;2.13;;;0.10;99.90;;;;;;5034356;28;20454;-70
2023/12/02 07:16:13;;;;;;;4.43;2.70;;;0.10;99.90;;;;;;5052154;28;20483;-70
2023/12/02 07:18:39;;;;;;;4.90;2.43;;;0.10;99.90;;;;;;5050859;28;20242;-70
2023/12/02 07:21:06;;;;;;;3.30;2.47;;;0.10;99.90;;;;;;5058103;28;20571;-69
2023/12/02 07:23:31;;;;;;;4.40;2.90;;;0.10;99.90;;;;;;5056105;28;20232;-70
2023/12/02 07:26:00;;;;;;;2.43;2.00;;;0.10;99.90;;;;;;5035693;28;20459;-70
2023/12/02 07:28:26;;;;;;;5.40;3.60;;;0.10;99.90;;;;;;5051490;28;20232;-70
2023/12/02 07:30:52;;;;;;;4.13;2.00;;;0.10;99.90;;;;;;5046045;28;20642;-71
2023/12/02 07:33:25;;;;;;;1.83;1.73;;;0.00;99.90;;;;;;5022042;28;24061;-69
2023/12/02 07:35:51;;;;;;;3.90;2.57;;;0.00;99.90;;;;;;5035552;28;20514;-69
2023/12/02 07:38:16;;;;;;;4.10;2.23;;;0.00;99.90;;;;;;5030122;28;20248;-69
2023/12/02 07:40:42;;;;;;;2.70;2.03;;;0.00;99.90;;;;;;5042284;28;20256;-70
2023/12/02 07:43:08;;;;;;;3.00;1.97;;;0.10;99.90;;;;;;5025522;28;20227;-70
2023/12/02 07:45:34;;;;;;;3.87;2.30;;;0.10;99.90;;;;;;5040255;28;20220;-71
2023/12/02 07:48:00;;;;;;;2.47;1.87;;;0.00;99.90;;;;;;5040152;28;20558;-70
2023/12/02 07:50:26;;;;;;;2.83;2.43;;;0.00;99.90;;;;;;5044780;28;20221;-69
2023/12/02 07:52:51;;;;;;;2.77;2.30;;;0.00;99.90;;;;;;5027445;28;20224;-70
2023/12/02 07:55:17;;;;;;;8.53;2.63;;;0.00;99.90;;;;;;5037037;28;20223;-69
2023/12/02 07:57:43;;;;;;;2.90;1.87;;;0.00;99.90;;;;;;5024827;28;20224;-70
2023/12/02 08:00:09;;;;;;;4.23;2.10;;;-0.10;99.90;;;;;;5041159;28;20221;-69
2023/12/02 08:02:38;;;;;;;3.03;1.67;;;-0.10;99.90;;;;;;5039254;28;20454;-69
2023/12/02 08:05:04;;;;;;;2.67;2.40;;;-0.10;99.90;;;;;;5022931;28;20452;-69
2023/12/02 08:07:30;;;;;;;3.77;1.87;;;-0.10;99.90;;;;;;5025727;28;20219;-69
2023/12/02 08:09:56;;;;;;;3.47;2.07;;;-0.10;99.90;;;;;;5027578;28;20460;-71
2023/12/02 08:12:21;;;;;;;2.97;1.87;;;-0.10;99.90;;;;;;5038104;28;20520;-70
2023/12/02 08:14:47;;;;;;;3.50;2.53;;;-0.10;99.90;;;;;;5043841;28;20220;-72
2023/12/02 08:17:13;;;;;;;3.67;2.87;;;-0.20;99.90;;;;;;5032623;28;20309;-71
2023/12/02 08:19:38;;;;;;;4.13;2.50;;;-0.20;99.90;;;;;;5040749;28;20212;-72
2023/12/02 08:22:04;;;;;;;3.97;2.30;;;-0.10;99.90;;;;;;5041644;28;20288;-71
2023/12/02 08:24:32;;;;;;;2.50;2.20;;;-0.10;99.90;;;;;;5044542;28;20311;-69
2023/12/02 08:26:58;;;;;;;3.33;2.40;;;-0.10;99.90;;;;;;5038500;28;20667;-71
2023/12/02 08:29:24;;;;;;;4.33;1.60;;;-0.20;99.90;;;;;;5042433;28;20466;-71
2023/12/02 08:31:50;;;;;;;3.50;2.40;;;-0.10;99.90;;;;;;5044378;28;20467;-71
2023/12/02 08:34:16;;;;;;;2.90;1.90;;;-0.20;99.90;;;;;;5041741;28;20467;-71
2023/12/02 08:36:42;;;;;;;3.10;1.63;;;-0.10;99.90;;;;;;5029417;28;20219;-71
2023/12/02 08:39:07;;;;;;;3.07;2.30;;;-0.20;99.90;;;;;;5039163;28;20227;-70
2023/12/02 08:41:33;;;;;;;2.13;1.60;;;-0.20;99.90;;;;;;5043298;28;20482;-71
2023/12/02 08:43:59;;;;;;;3.27;2.00;;;-0.10;99.90;;;;;;5030963;28;20245;-71
2023/12/02 08:46:25;;;;;;;3.87;2.10;;;-0.20;99.90;;;;;;5029555;28;20475;-71
2023/12/02 08:48:51;;;;;;;3.57;2.37;;;-0.20;99.90;;;;;;5007262;28;20252;-69
2023/12/02 08:51:17;;;;;;;5.27;2.63;;;-0.20;99.90;;;;;;4995815;28;21033;-71
2023/12/02 08:53:43;;;;;;;4.07;2.20;;;-0.20;99.90;;;;;;4998633;28;20527;-71
2023/12/02 08:56:09;;;;;;;3.97;2.37;;;-0.20;99.90;;;;;;5006092;28;20218;-71
2023/12/02 08:58:35;;;;;;;3.07;2.20;;;-0.20;99.90;;;;;;5005295;28;20253;-71
2023/12/02 09:01:00;;;;;;;3.57;2.63;;;-0.30;99.90;;;;;;5010463;28;20596;-71
2023/12/02 09:03:26;;;;;;;5.00;2.83;;;-0.30;99.90;;;;;;5009751;28;20455;-70
2023/12/02 09:05:55;;;;;;;6.10;3.20;;;-0.30;99.90;;;;;;5007534;28;20229;-71
2023/12/02 09:08:21;;;;;;;4.60;2.53;;;-0.20;99.90;;;;;;5002966;28;20309;-70
2023/12/02 09:10:47;;;;;;;3.73;2.63;;;-0.20;99.90;;;;;;5009513;28;20530;-71
2023/12/02 09:13:27;;;;;;;3.33;2.47;;;-0.30;99.90;;;;;;5006520;28;20556;-71
2023/12/02 09:15:53;;;;;;;4.23;1.93;;;-0.30;99.90;;;;;;4997941;28;20225;-71
2023/12/02 09:18:37;;;;;;;4.20;2.50;;;-0.30;99.90;;;;;;4991780;28;20470;-71
2023/12/02 09:21:20;;;;;;;11.33;2.40;;;-0.30;99.90;;;;;;5019087;28;20225;-71
2023/12/02 09:23:50;;;;;;;4.50;2.83;;;-0.30;99.90;;;;;;5026623;28;20510;-70
2023/12/02 09:26:29;;;;;;;7.57;2.90;;;-0.30;99.90;;;;;;5028645;28;20463;-70
2023/12/02 09:28:55;;;;;;;3.47;2.30;;;-0.20;99.90;;;;;;5029728;28;20493;-71
2023/12/02 09:31:21;;;;;;;3.90;2.80;;;-0.20;99.90;;;;;;5026112;28;20463;-70
2023/12/02 09:33:58;;;;;;;4.70;3.20;;;-0.30;99.90;;;;;;5007413;28;20456;-71
2023/12/02 09:36:39;;;;;;;3.97;2.20;;;-0.30;99.90;;;;;;5020563;28;20221;-71
2023/12/02 09:39:17;;;;;;;3.20;2.27;;;-0.20;99.90;;;;;;5021194;28;20495;-71
2023/12/02 09:41:49;;;;;;;4.83;2.90;;;-0.30;99.90;;;;;;5022121;28;20452;-70
2023/12/02 09:44:23;;;;;;;4.47;2.80;;;-0.20;99.90;;;;;;5021485;28;20932;-71
2023/12/02 09:47:30;;;;;;;2.87;2.37;;;-0.30;99.90;;;;;;5025652;28;20498;-68
2023/12/02 09:50:11;;;;;;;3.63;2.27;;;-0.30;99.90;;;;;;4999987;28;20460;-69
2023/12/02 09:53:23;;;;;;;3.00;2.00;;;-0.20;99.90;;;;;;4976412;28;20478;-71
2023/12/02 09:55:58;;;;;;;3.40;2.70;;;-0.30;99.90;;;;;;5018841;28;20455;-70
2023/12/02 09:58:31;;;;;;;4.80;2.63;;;-0.30;99.90;;;;;;5028233;28;20460;-70
2023/12/02 10:01:04;;;;;;;3.23;2.13;;;-0.30;99.90;;;;;;5027865;28;20460;-70
2023/12/02 10:03:49;;;;;;;5.30;2.70;;;-0.40;99.90;;;;;;5024907;28;20451;-70
2023/12/02 10:06:23;;;;;;;3.87;2.27;;;-0.30;99.90;;;;;;5027211;28;20995;-71
2023/12/02 10:09:09;;;;;;;3.23;1.77;;;-0.20;99.90;;;;;;5029535;28;21030;-69
2023/12/02 10:11:57;;;;;;;5.27;3.00;;;-0.20;99.90;;;;;;5003660;28;20481;-70
2023/12/02 10:14:25;;;;;;;5.20;2.17;;;-0.30;99.90;;;;;;5009872;28;21048;-71
2023/12/02 10:16:55;;;;;;;5.60;2.83;;;-0.30;99.90;;;;;;5009283;28;20449;-71
2023/12/02 10:19:26;;;;;;;4.67;2.20;;;-0.30;99.90;;;;;;5020311;28;20455;-71
2023/12/02 10:21:53;;;;;;;4.07;2.50;;;-0.30;99.90;;;;;;5029609;28;20444;-70
2023/12/02 10:24:28;;;;;;;3.40;2.27;;;-0.40;99.90;;;;;;5026268;28;20543;-71
2023/12/02 10:27:09;;;;;;;4.70;3.10;;;-0.30;99.90;;;;;;5027641;28;20533;-70
2023/12/02 10:29:53;;;;;;;4.13;2.37;;;-0.20;99.90;;;;;;5024244;28;20452;-69
2023/12/02 10:32:43;;;;;;;4.20;2.57;;;-0.20;99.90;;;;;;5038037;28;20483;-70
2023/12/02 10:35:26;;;;;;;2.90;2.10;;;-0.30;99.90;;;;;;5021305;28;20462;-71
2023/12/02 10:37:58;;;;;;;7.43;3.13;;;-0.10;99.90;;;;;;5028523;28;20983;-70
2023/12/02 10:40:27;;;;;;;4.10;2.63;;;-0.20;99.90;;;;;;5020327;28;20459;-71
2023/12/02 10:43:12;;;;;;;4.87;2.33;;;-0.30;99.90;;;;;;5024998;28;20451;-70
2023/12/02 10:45:41;;;;;;;3.93;2.30;;;-0.20;99.90;;;;;;5023255;28;20444;-70
2023/12/02 10:48:11;;;;;;;2.97;2.10;;;-0.20;99.90;;;;;;5023608;28;20452;-71
2023/12/02 10:50:39;;;;;;;2.17;1.90;;;-0.30;99.90;;;;;;5022095;28;20463;-72
2023/12/02 10:53:05;;;;;;;3.90;2.50;;;-0.30;99.90;;;;;;5021346;28;20460;-71
2023/12/02 10:55:34;;;;;;;3.37;2.70;;;-0.30;99.90;;;;;;5009549;28;20456;-71
2023/12/02 10:58:04;;;;;;;6.53;2.70;;;-0.30;99.90;;;;;;5011645;28;20228;-70
2023/12/02 11:00:34;;;;;;;6.00;1.90;;;-0.30;99.90;;;;;;5004237;28;20445;-71
2023/12/02 11:03:06;;;;;;;3.10;2.33;;;-0.30;99.90;;;;;;5003598;28;20500;-71
2023/12/02 11:06:12;;;;;;;5.70;2.23;;;-0.40;99.90;;;;;;5024415;28;20535;-71
2023/12/02 11:09:20;;;;;;;3.37;2.13;;;-0.30;99.90;;;;;;5003823;28;20453;-72
2023/12/02 11:12:16;;;;;;;4.00;2.20;;;-0.30;99.90;;;;;;4975229;28;20492;-72
2023/12/02 11:14:46;;;;;;;2.87;1.80;;;-0.30;99.90;;;;;;5007860;28;20444;-75
2023/12/02 11:17:26;;;;;;;2.53;2.07;;;-0.30;99.90;;;;;;5010773;28;20487;-72
2023/12/02 11:20:28;;;;;;;2.13;1.63;;;-0.30;99.90;;;;;;5005699;28;20462;-73
2023/12/02 11:22:54;;;;;;;4.13;2.30;;;-0.30;99.90;;;;;;5018278;28;20463;-70
2023/12/02 11:25:34;;;;;;;4.27;2.80;;;-0.30;99.90;;;;;;5027111;28;20464;-70
2023/12/02 11:28:23;;;;;;;3.33;2.53;;;-0.40;99.90;;;;;;5021547;28;20212;-72
2023/12/02 11:31:09;;;;;;;2.53;2.30;;;-0.30;99.90;;;;;;5022633;28;20594;-72
2023/12/02 11:34:02;;;;;;;3.60;2.33;;;-0.20;99.90;;;;;;5004821;28;20493;-70
2023/12/02 11:36:36;;;;;;;3.43;2.87;;;-0.10;99.90;;;;;;5023328;28;20452;-70
2023/12/02 11:39:26;;;;;;;3.37;2.30;;;0.00;99.90;;;;;;5026720;28;20444;-71
2023/12/02 11:41:55;;;;;;;3.87;2.40;;;0.10;99.90;;;;;;5018742;28;20444;-72
2023/12/02 11:44:39;;;;;;;7.40;3.07;;;0.00;99.90;;;;;;5021340;28;20804;-71
2023/12/02 11:47:31;;;;;;;4.80;2.53;;;-0.10;99.90;;;;;;5005086;28;20448;-72
2023/12/02 11:50:00;;;;;;;2.50;2.00;;;-0.20;99.90;;;;;;5002288;28;20449;-70
2023/12/02 11:52:49;;;;;;;4.40;2.57;;;-0.10;99.90;;;;;;5006732;28;20465;-70
2023/12/02 11:55:29;;;;;;;4.17;2.30;;;0.00;99.90;;;;;;5012407;28;20485;-72
2023/12/02 11:58:20;;;;;;;4.10;2.80;;;0.00;99.90;;;;;;5027433;28;20455;-71
2023/12/02 12:00:56;;;;;;;3.77;2.37;;;-0.10;99.90;;;;;;5016455;28;20476;-71
2023/12/02 12:03:59;;;;;;;5.30;2.50;;;-0.10;99.90;;;;;;5023487;28;20537;-71
2023/12/02 12:06:34;;;;;;;5.63;3.00;;;0.00;99.90;;;;;;5021730;28;20459;-72
2023/12/02 12:09:10;;;;;;;3.10;2.10;;;0.00;99.90;;;;;;5025618;28;20471;-70
2023/12/02 12:11:38;;;;;;;1.93;1.83;;;0.10;99.90;;;;;;5025904;28;20463;-71
2023/12/02 12:14:06;;;;;;;4.23;2.80;;;0.10;99.90;;;;;;5016688;28;20445;-72
2023/12/02 12:16:32;;;;;;;3.90;2.30;;;0.00;99.90;;;;;;5026651;28;20814;-71
2023/12/02 12:18:58;;;;;;;5.47;4.03;;;0.00;99.90;;;;;;5024732;28;20447;-71
2023/12/02 12:21:24;;;;;;;5.80;3.10;;;0.00;99.90;;;;;;5011158;28;20217;-72
2023/12/02 12:23:49;;;;;;;4.50;3.20;;;0.00;99.90;;;;;;5028782;28;20506;-71
2023/12/02 12:26:15;;;;;;;3.70;3.40;;;0.00;99.90;;;;;;5029285;28;20236;-72
2023/12/02 12:28:41;;;;;;;12.03;4.70;;;0.10;99.90;;;;;;4996903;28;20304;-71
2023/12/02 12:31:10;;;;;;;6.60;5.97;;;0.10;99.90;;;;;;5027589;28;20271;-77
2023/12/02 12:33:39;;;;;;;6.60;4.90;;;0.10;99.90;;;;;;5026492;28;20270;-72
2023/12/02 12:36:09;;;;;;;6.20;5.30;;;0.20;99.90;;;;;;5025940;28;20436;-71
2023/12/02 12:38:37;;;;;;;9.40;8.47;;;0.20;99.90;;;;;;5030044;28;20443;-71
2023/12/02 12:41:05;;;;;;;7.53;6.83;;;0.20;99.90;;;;;;5029951;28;20444;-72
2023/12/02 12:43:31;;;;;;;4.63;4.10;;;0.30;99.90;;;;;;5028561;28;20436;-70
2023/12/02 12:45:57;;;;;;;4.27;3.87;;;0.30;99.90;;;;;;5018240;28;20455;-72
2023/12/02 12:48:26;;;;;;;4.00;3.10;;;0.20;99.90;;;;;;5014515;28;20448;-72
2023/12/02 12:50:56;;;;;;;4.57;3.20;;;0.10;99.90;;;;;;5009161;28;20518;-72
2023/12/02 12:53:29;;;;;;;5.20;3.37;;;0.20;99.90;;;;;;5009832;28;20566;-72
2023/12/02 12:56:12;;;;;;;5.97;3.00;;;0.20;99.90;;;;;;5031088;28;20456;-72
2023/12/02 12:59:00;;;;;;;5.63;4.07;;;0.20;99.90;;;;;;4996721;28;20448;-71
2023/12/02 13:01:32;;;;;;;5.70;3.13;;;0.30;99.90;;;;;;5026764;28;20554;-71